createdAt,value
2023-07-24T00:00:52.002Z,28
2023-07-24T00:03:23.722Z,28
2023-07-24T00:05:54.608Z,28
2023-07-24T00:08:26.291Z,28
2023-07-24T00:10:57.390Z,27
2023-07-24T00:13:29.329Z,25
2023-07-24T00:16:00.740Z,24
2023-07-24T00:18:31.657Z,28
2023-07-24T00:21:04.469Z,26
2023-07-24T00:23:36.200Z,24
2023-07-24T00:26:07.869Z,28
2023-07-24T00:28:38.823Z,28
2023-07-24T00:31:11.102Z,24
2023-07-24T00:33:41.958Z,28
2023-07-24T00:36:13.454Z,28
2023-07-24T00:38:48.175Z,24
2023-07-24T00:41:18.987Z,26
2023-07-24T00:43:50.308Z,27
2023-07-24T00:46:21.238Z,27
2023-07-24T00:48:52.263Z,28
2023-07-24T00:51:23.224Z,27
2023-07-24T00:53:54.625Z,28
2023-07-24T00:56:25.673Z,28
2023-07-24T00:58:57.334Z,28
2023-07-24T01:01:28.753Z,28
2023-07-24T01:04:01.615Z,28
2023-07-24T01:06:32.529Z,28
2023-07-24T01:09:03.504Z,28
2023-07-24T01:11:34.716Z,28
2023-07-24T01:14:06.890Z,28
2023-07-24T01:16:38.036Z,24
2023-07-24T01:19:09.234Z,28
2023-07-24T01:21:40.597Z,27
2023-07-24T01:24:13.817Z,26
2023-07-24T01:26:45.105Z,27
2023-07-24T01:29:16.275Z,28
2023-07-24T01:31:49.680Z,28
2023-07-24T01:34:22.102Z,28
2023-07-24T01:36:53.108Z,24
2023-07-24T01:39:23.900Z,28
2023-07-24T01:41:55.376Z,27
2023-07-24T01:44:29.424Z,28
2023-07-24T01:47:00.467Z,28
2023-07-24T01:49:32.454Z,28
2023-07-24T01:52:07.116Z,28
2023-07-24T01:54:38.787Z,24
2023-07-24T01:57:09.586Z,28
2023-07-24T01:59:43.405Z,24
2023-07-24T02:02:14.686Z,28
2023-07-24T02:04:45.677Z,24
2023-07-24T02:07:21.301Z,28
2023-07-24T02:09:52.977Z,28
2023-07-24T02:12:24.139Z,24
2023-07-24T02:14:55.428Z,24
2023-07-24T02:17:35.691Z,27
2023-07-24T02:20:06.368Z,28
2023-07-24T02:22:37.522Z,26
2023-07-24T02:25:09.211Z,28
2023-07-24T02:27:40.328Z,28
2023-07-24T02:30:11.745Z,24
2023-07-24T02:32:45.815Z,24
2023-07-24T02:35:17.144Z,24
2023-07-24T02:37:48.441Z,28
2023-07-24T02:40:19.597Z,28
2023-07-24T02:42:50.675Z,25
2023-07-24T02:45:22.409Z,24
2023-07-24T02:47:53.261Z,27
2023-07-24T02:50:24.984Z,28
2023-07-24T02:52:56.124Z,28
2023-07-24T02:55:27.676Z,27
2023-07-24T02:57:59.444Z,28
2023-07-24T03:00:31.764Z,28
2023-07-24T03:03:02.477Z,28
2023-07-24T03:05:34.031Z,28
2023-07-24T03:08:05.584Z,28
2023-07-24T03:10:36.808Z,28
2023-07-24T03:13:09.840Z,28
2023-07-24T03:15:41.245Z,28
2023-07-24T03:18:12.578Z,28
2023-07-24T03:20:47.552Z,28
2023-07-24T03:23:18.802Z,24
2023-07-24T03:25:50.361Z,28
2023-07-24T03:28:21.732Z,28
2023-07-24T03:30:52.595Z,28
2023-07-24T03:33:24.523Z,28
2023-07-24T03:35:55.554Z,28
2023-07-24T03:38:27.445Z,28
2023-07-24T03:40:58.285Z,28
2023-07-24T03:43:30.499Z,28
2023-07-24T03:46:01.935Z,28
2023-07-24T03:48:32.909Z,28
2023-07-24T03:51:04.674Z,28
2023-07-24T03:53:36.705Z,28
2023-07-24T03:56:07.578Z,28
2023-07-24T03:58:38.656Z,28
2023-07-24T04:01:09.801Z,28
2023-07-24T04:03:44.937Z,30
2023-07-24T04:06:17.754Z,28
2023-07-24T04:08:49.019Z,28
2023-07-24T04:11:20.059Z,28
2023-07-24T04:13:51.449Z,28
2023-07-24T04:16:22.819Z,28
2023-07-24T04:18:55.020Z,24
2023-07-24T04:21:26.459Z,29
2023-07-24T04:23:57.946Z,30
2023-07-24T04:26:29.696Z,24
2023-07-24T04:29:02.471Z,28
2023-07-24T04:31:33.770Z,28
2023-07-24T04:34:05.683Z,28
2023-07-24T04:36:36.694Z,27
2023-07-24T04:39:08.562Z,30
2023-07-24T04:41:39.707Z,32
2023-07-24T04:44:10.550Z,36
2023-07-24T04:46:41.694Z,32
2023-07-24T04:49:12.546Z,32
2023-07-24T04:51:43.331Z,36
2023-07-24T04:54:14.743Z,34
2023-07-24T04:56:45.970Z,33
2023-07-24T04:59:16.893Z,28
2023-07-24T05:01:49.006Z,29
2023-07-24T05:04:19.979Z,32
2023-07-24T05:06:56.270Z,32
2023-07-24T05:09:27.405Z,28
2023-07-24T05:11:58.480Z,28
2023-07-24T05:14:30.600Z,28
2023-07-24T05:17:01.660Z,28
2023-07-24T05:19:32.929Z,28
2023-07-24T05:22:03.546Z,28
2023-07-24T05:24:36.582Z,28
2023-07-24T05:27:08.789Z,28
2023-07-24T05:29:38.180Z,28
2023-07-24T05:32:09.142Z,25
2023-07-24T05:34:39.887Z,28
2023-07-24T05:37:12.731Z,28
2023-07-24T05:39:43.952Z,28
2023-07-24T05:42:19.182Z,24
2023-07-24T05:44:50.397Z,26
2023-07-24T05:47:21.334Z,28
2023-07-24T05:49:54.300Z,26
2023-07-24T05:52:25.185Z,24
2023-07-24T05:54:58.591Z,28
2023-07-24T05:57:31.563Z,28
2023-07-24T06:00:02.580Z,27
2023-07-24T06:02:35.872Z,28
2023-07-24T06:05:08.669Z,25
2023-07-24T06:07:39.779Z,24
2023-07-24T06:10:10.764Z,24
2023-07-24T06:12:41.659Z,25
2023-07-24T06:15:12.456Z,28
2023-07-24T06:17:43.180Z,28
2023-07-24T06:20:14.183Z,28
2023-07-24T06:22:46.846Z,27
2023-07-24T06:25:17.625Z,26
2023-07-24T06:27:48.870Z,24
2023-07-24T06:30:19.945Z,24
2023-07-24T06:32:50.679Z,24
2023-07-24T06:35:23.705Z,24
2023-07-24T06:37:56.332Z,24
2023-07-24T06:40:27.116Z,28
2023-07-24T06:42:58.057Z,24
2023-07-24T06:45:29.949Z,24
2023-07-24T06:48:01.154Z,24
2023-07-24T06:50:32.414Z,24
2023-07-24T06:53:03.732Z,24
2023-07-24T06:55:35.018Z,24
2023-07-24T06:58:06.255Z,24
2023-07-24T07:00:41.794Z,24
2023-07-24T07:03:14.337Z,24
2023-07-24T07:05:45.596Z,23
2023-07-24T07:08:16.768Z,25
2023-07-24T07:10:47.543Z,24
2023-07-24T07:13:18.313Z,24
2023-07-24T07:15:49.117Z,24
2023-07-24T07:18:21.509Z,24
2023-07-24T07:20:57.213Z,23
2023-07-24T07:23:28.648Z,23
2023-07-24T07:26:03.837Z,20
2023-07-24T07:28:37.291Z,24
2023-07-24T07:31:07.974Z,20
2023-07-24T07:33:40.768Z,23
2023-07-24T07:38:56.255Z,20
2023-07-24T07:41:27.017Z,24
2023-07-24T07:43:57.718Z,20
2023-07-24T07:46:29.451Z,20
2023-07-24T07:49:06.025Z,21
2023-07-24T07:51:39.846Z,20
2023-07-24T07:54:10.561Z,20
2023-07-24T07:56:41.331Z,24
2023-07-24T07:59:12.202Z,21
2023-07-24T08:01:43.128Z,20
2023-07-24T08:04:14.552Z,23
2023-07-24T08:06:45.272Z,20
2023-07-24T08:09:16.092Z,20
2023-07-24T08:11:47.050Z,20
2023-07-24T08:14:17.804Z,20
2023-07-24T08:16:49.096Z,23
2023-07-24T08:19:19.843Z,20
2023-07-24T08:21:52.776Z,20
2023-07-24T08:24:24.005Z,20
2023-07-24T08:26:54.666Z,20
2023-07-24T08:29:28.295Z,20
2023-07-24T08:31:59.663Z,24
2023-07-24T08:34:30.007Z,20
2023-07-24T08:37:01.018Z,21
2023-07-24T08:39:31.656Z,20
2023-07-24T08:42:04.308Z,24
2023-07-24T08:44:36.929Z,22
2023-07-24T08:47:08.564Z,20
2023-07-24T08:49:39.412Z,20
2023-07-24T08:52:10.672Z,20
2023-07-24T08:54:40.672Z,20
2023-07-24T08:57:11.864Z,16
2023-07-24T08:59:42.962Z,16
2023-07-24T09:02:13.777Z,20
2023-07-24T09:04:45.118Z,19
2023-07-24T09:07:16.666Z,18
2023-07-24T09:09:48.388Z,20
2023-07-24T09:12:20.581Z,18
2023-07-24T09:14:51.328Z,16
2023-07-24T09:17:22.546Z,20
2023-07-24T09:19:53.231Z,20
2023-07-24T09:22:24.887Z,20
2023-07-24T09:24:57.287Z,16
2023-07-24T09:27:28.052Z,19
2023-07-24T09:29:58.743Z,17
2023-07-24T09:32:31.886Z,20
2023-07-24T09:35:04.358Z,16
2023-07-24T09:37:33.653Z,16
2023-07-24T09:40:06.946Z,20
2023-07-24T09:42:48.768Z,19
2023-07-24T09:45:09.532Z,17
2023-07-24T09:50:11.347Z,20
2023-07-24T09:52:41.757Z,20
2023-07-24T09:55:12.656Z,16
2023-07-24T09:57:42.939Z,17
2023-07-24T10:00:14.380Z,16
2023-07-24T10:02:44.772Z,18
2023-07-24T10:05:21.376Z,20
2023-07-24T10:07:51.777Z,16
2023-07-24T10:10:22.195Z,20
2023-07-24T10:12:53.256Z,16
2023-07-24T10:15:23.852Z,20
2023-07-24T10:17:54.884Z,16
2023-07-24T10:20:25.349Z,20
2023-07-24T10:22:57.084Z,16
2023-07-24T10:25:28.743Z,20
2023-07-24T10:28:02.975Z,18
2023-07-24T10:30:34.449Z,18
2023-07-24T10:33:10.450Z,16
2023-07-24T10:35:42.255Z,16
2023-07-24T10:38:13.429Z,16
2023-07-24T10:40:44.986Z,16
2023-07-24T10:43:15.870Z,16
2023-07-24T10:45:46.269Z,16
2023-07-24T10:48:16.378Z,17
2023-07-24T10:50:46.497Z,17
2023-07-24T10:53:15.764Z,16
2023-07-24T10:55:46.324Z,19
2023-07-24T10:58:16.834Z,20
2023-07-24T11:00:48.980Z,20
2023-07-24T11:03:19.957Z,19
2023-07-24T11:05:54.419Z,40
2023-07-24T11:08:24.552Z,28
2023-07-24T11:10:55.645Z,16
2023-07-24T11:13:30.452Z,16
2023-07-24T11:16:04.072Z,19
2023-07-24T11:18:48.376Z,20
2023-07-24T11:21:06.507Z,20
2023-07-24T11:23:37.208Z,20
2023-07-24T11:26:08.858Z,20
2023-07-24T11:28:39.425Z,16
2023-07-24T11:31:10.183Z,20
2023-07-24T11:33:40.562Z,16
2023-07-24T11:36:13.670Z,16
2023-07-24T11:38:44.307Z,15
2023-07-24T11:41:15.317Z,16
2023-07-24T11:43:44.918Z,19
2023-07-24T11:46:17.557Z,18
2023-07-24T11:48:48.367Z,16
2023-07-24T11:51:23.588Z,16
2023-07-24T11:53:58.058Z,16
2023-07-24T11:56:29.913Z,16
2023-07-24T11:59:00.731Z,19
2023-07-24T12:01:32.563Z,16
2023-07-24T12:04:04.020Z,16
2023-07-24T12:06:36.489Z,16
2023-07-24T12:09:06.933Z,16
2023-07-24T12:11:41.183Z,20
2023-07-24T12:14:15.272Z,16
2023-07-24T12:16:47.193Z,19
2023-07-24T12:19:18.373Z,16
2023-07-24T12:21:47.865Z,16
2023-07-24T12:24:18.145Z,16
2023-07-24T12:26:49.434Z,18
2023-07-24T12:29:19.936Z,16
2023-07-24T12:31:51.750Z,20
2023-07-24T12:34:22.155Z,17
2023-07-24T12:36:54.127Z,17
2023-07-24T12:39:24.862Z,16
2023-07-24T12:41:58.088Z,17
2023-07-24T12:44:28.459Z,16
2023-07-24T12:47:02.585Z,16
2023-07-24T12:49:33.096Z,12
2023-07-24T12:52:05.183Z,15
2023-07-24T12:54:46.665Z,16
2023-07-24T12:57:10.399Z,16
2023-07-24T12:59:41.042Z,16
2023-07-24T13:02:16.259Z,16
2023-07-24T13:04:50.640Z,20
2023-07-24T13:07:24.520Z,16
2023-07-24T13:09:55.201Z,16
2023-07-24T13:12:25.667Z,18
2023-07-24T13:14:56.487Z,16
2023-07-24T13:17:27.466Z,17
2023-07-24T13:19:58.391Z,16
2023-07-24T13:22:28.826Z,20
2023-07-24T13:25:00.663Z,20
2023-07-24T13:27:30.238Z,16
2023-07-24T13:30:00.629Z,16
2023-07-24T13:32:31.137Z,15
2023-07-24T13:35:02.048Z,16
2023-07-24T13:37:33.360Z,16
2023-07-24T13:40:04.499Z,16
2023-07-24T13:42:35.250Z,20
2023-07-24T13:45:06.045Z,16
2023-07-24T13:47:37.043Z,16
2023-07-24T13:50:07.672Z,20
2023-07-24T13:52:38.941Z,16
2023-07-24T13:55:10.326Z,20
2023-07-24T13:57:43.015Z,17
2023-07-24T14:00:15.247Z,20
2023-07-24T14:02:44.401Z,20
2023-07-24T14:05:14.607Z,16
2023-07-24T14:07:45.532Z,16
2023-07-24T14:10:15.903Z,31
2023-07-24T14:12:49.037Z,17
2023-07-24T14:15:24.291Z,12
2023-07-24T14:17:55.011Z,22
2023-07-24T14:20:26.057Z,18
2023-07-24T14:22:56.845Z,16
2023-07-24T14:25:27.551Z,16
2023-07-24T14:27:56.454Z,15
2023-07-24T14:30:28.925Z,16
2023-07-24T14:32:59.812Z,16
2023-07-24T14:35:31.658Z,20
2023-07-24T14:38:04.254Z,12
2023-07-24T14:40:36.907Z,14
2023-07-24T14:43:08.177Z,16
2023-07-24T14:45:39.418Z,16
2023-07-24T14:48:10.442Z,13
2023-07-24T14:50:41.271Z,16
2023-07-24T14:53:18.353Z,14
2023-07-24T14:55:49.186Z,14
2023-07-24T14:58:19.843Z,12
2023-07-24T15:00:50.178Z,15
2023-07-24T15:03:21.000Z,16
2023-07-24T15:06:01.005Z,16
2023-07-24T15:08:32.086Z,20
2023-07-24T15:11:03.402Z,16
2023-07-24T15:13:36.801Z,13
2023-07-24T15:16:09.757Z,16
2023-07-24T15:18:40.985Z,12
2023-07-24T15:21:11.967Z,16
2023-07-24T15:23:45.036Z,22
2023-07-24T15:26:15.925Z,18
2023-07-24T15:28:47.686Z,20
2023-07-24T15:31:18.382Z,24
2023-07-24T15:33:49.379Z,19
2023-07-24T15:36:19.932Z,20
2023-07-24T15:38:50.697Z,20
2023-07-24T15:41:21.012Z,16
2023-07-24T15:43:52.000Z,22
2023-07-24T15:46:22.996Z,16
2023-07-24T15:48:52.065Z,16
2023-07-24T15:51:23.641Z,20
2023-07-24T15:53:53.978Z,16
2023-07-24T15:56:26.725Z,16
2023-07-24T15:59:01.036Z,16
2023-07-24T16:01:32.175Z,20
2023-07-24T16:04:02.862Z,20
2023-07-24T16:06:33.561Z,16
2023-07-24T16:09:04.311Z,17
2023-07-24T16:11:45.454Z,15
2023-07-24T16:14:14.829Z,20
2023-07-24T16:16:45.986Z,16
2023-07-24T16:19:17.431Z,16
2023-07-24T16:21:49.465Z,16
2023-07-24T16:24:33.263Z,16
2023-07-24T16:27:03.827Z,15
2023-07-24T16:29:38.927Z,12
2023-07-24T16:32:09.340Z,13
2023-07-24T16:34:41.682Z,16
2023-07-24T16:37:11.934Z,16
2023-07-24T16:39:43.031Z,16
2023-07-24T16:42:13.585Z,16
2023-07-24T16:44:44.226Z,16
2023-07-24T16:47:19.901Z,16
2023-07-24T16:49:50.310Z,16
2023-07-24T16:52:20.853Z,17
2023-07-24T16:54:51.974Z,16
2023-07-24T16:57:22.406Z,16
2023-07-24T16:59:55.069Z,19
2023-07-24T17:02:27.007Z,20
2023-07-24T17:04:58.854Z,20
2023-07-24T17:07:30.828Z,28
2023-07-24T17:10:02.429Z,24
2023-07-24T17:12:33.429Z,24
2023-07-24T17:15:03.820Z,20
2023-07-24T17:17:35.397Z,20
2023-07-24T17:20:10.330Z,20
2023-07-24T17:22:41.389Z,24
2023-07-24T17:25:13.623Z,24
2023-07-24T17:27:45.226Z,23
2023-07-24T17:30:16.997Z,20
2023-07-24T17:32:47.890Z,24
2023-07-24T17:35:18.355Z,20
2023-07-24T17:37:49.226Z,20
2023-07-24T17:40:20.394Z,24
2023-07-24T17:42:52.985Z,20
2023-07-24T17:45:24.179Z,20
2023-07-24T17:47:59.575Z,20
2023-07-24T17:50:30.088Z,18
2023-07-24T17:53:01.355Z,20
2023-07-24T17:55:33.470Z,18
2023-07-24T17:58:04.336Z,19
2023-07-24T18:00:33.967Z,24
2023-07-24T18:03:05.384Z,20
2023-07-24T18:05:35.631Z,16
2023-07-24T18:08:06.913Z,16
2023-07-24T18:10:37.732Z,16
2023-07-24T18:13:08.169Z,16
2023-07-24T18:15:36.781Z,20
2023-07-24T18:18:07.297Z,20
2023-07-24T18:20:39.531Z,20
2023-07-24T18:23:09.858Z,20
2023-07-24T18:25:40.278Z,20
2023-07-24T18:28:11.032Z,20
2023-07-24T18:30:41.660Z,16
2023-07-24T18:33:16.942Z,20
2023-07-24T18:35:54.895Z,16
2023-07-24T18:38:26.927Z,20
2023-07-24T18:41:00.104Z,20
2023-07-24T18:43:37.815Z,20
2023-07-24T18:46:08.801Z,20
2023-07-24T18:48:40.225Z,16
2023-07-24T18:51:09.606Z,16
2023-07-24T18:53:43.226Z,20
2023-07-24T18:56:13.593Z,16
2023-07-24T18:58:45.377Z,19
2023-07-24T19:01:16.436Z,16
2023-07-24T19:03:45.167Z,16
2023-07-24T19:06:17.452Z,20
2023-07-24T19:08:46.202Z,20
2023-07-24T19:11:17.545Z,19
2023-07-24T19:13:48.794Z,20
2023-07-24T19:16:19.573Z,16
2023-07-24T19:18:50.125Z,20
2023-07-24T19:21:20.762Z,20
2023-07-24T19:23:51.084Z,19
2023-07-24T19:26:21.860Z,20
2023-07-24T19:28:52.138Z,20
2023-07-24T19:31:21.429Z,16
2023-07-24T19:33:52.263Z,20
2023-07-24T19:36:22.592Z,20
2023-07-24T19:38:53.177Z,20
2023-07-24T19:41:23.837Z,16
2023-07-24T19:43:55.143Z,20
2023-07-24T19:46:26.238Z,20
2023-07-24T19:48:56.671Z,19
2023-07-24T19:51:26.614Z,18
2023-07-24T19:53:57.256Z,20
2023-07-24T19:56:28.259Z,24
2023-07-24T19:58:59.075Z,20
2023-07-24T20:01:31.018Z,20
2023-07-24T20:04:03.503Z,20
2023-07-24T20:06:35.153Z,20
2023-07-24T20:09:05.687Z,20
2023-07-24T20:11:36.984Z,24
2023-07-24T20:14:08.307Z,20
2023-07-24T20:16:43.163Z,20
2023-07-24T20:19:14.702Z,20
2023-07-24T20:21:45.241Z,20
2023-07-24T20:24:16.473Z,20
2023-07-24T20:26:48.419Z,20
2023-07-24T20:29:19.500Z,20
2023-07-24T20:31:50.370Z,19
2023-07-24T20:34:21.537Z,16
2023-07-24T20:36:52.215Z,20
2023-07-24T20:39:25.250Z,20
2023-07-24T20:41:55.922Z,20
2023-07-24T20:44:29.286Z,20
2023-07-24T20:47:05.991Z,18
2023-07-24T20:49:36.389Z,20
2023-07-24T20:52:07.014Z,20
2023-07-24T20:54:39.069Z,20
2023-07-24T20:57:13.704Z,20
2023-07-24T20:59:46.421Z,20
2023-07-24T21:02:18.381Z,20
2023-07-24T21:04:49.157Z,20
2023-07-24T21:07:22.106Z,20
2023-07-24T21:09:52.685Z,20
2023-07-24T21:12:23.621Z,17
2023-07-24T21:14:58.621Z,19
2023-07-24T21:17:31.227Z,19
2023-07-24T21:20:13.221Z,20
2023-07-24T21:22:44.383Z,19
2023-07-24T21:25:15.376Z,20
2023-07-24T21:27:50.193Z,20
2023-07-24T21:30:28.536Z,19
2023-07-24T21:33:01.259Z,19
2023-07-24T21:35:31.999Z,17
2023-07-24T21:38:06.920Z,19
2023-07-24T21:40:42.341Z,20
2023-07-24T21:43:12.855Z,20
2023-07-24T21:45:43.649Z,20
2023-07-24T21:48:14.523Z,18
2023-07-24T21:50:46.342Z,16
2023-07-24T21:53:19.048Z,18
2023-07-24T21:55:55.715Z,20
2023-07-24T21:58:26.678Z,16
2023-07-24T22:00:59.188Z,20
2023-07-24T22:03:32.369Z,16
2023-07-24T22:06:05.292Z,16
2023-07-24T22:08:32.936Z,18
2023-07-24T22:11:07.387Z,16
2023-07-24T22:13:38.119Z,19
2023-07-24T22:16:09.336Z,16
2023-07-24T22:18:40.183Z,20
2023-07-24T22:21:10.726Z,16
2023-07-24T22:23:42.066Z,16
2023-07-24T22:26:13.316Z,16
2023-07-24T22:28:44.555Z,16
2023-07-24T22:31:15.476Z,15
2023-07-24T22:33:46.292Z,16
2023-07-24T22:36:17.179Z,16
2023-07-24T22:38:47.911Z,16
2023-07-24T22:41:18.492Z,16
2023-07-24T22:43:49.726Z,14
2023-07-24T22:46:20.683Z,16
2023-07-24T22:48:51.924Z,16
2023-07-24T22:51:22.864Z,20
2023-07-24T22:53:55.824Z,16
2023-07-24T22:56:26.502Z,16
2023-07-24T22:58:57.552Z,18
2023-07-24T23:01:29.531Z,16
2023-07-24T23:04:00.469Z,16
2023-07-24T23:06:31.216Z,16
2023-07-24T23:09:01.865Z,12
2023-07-24T23:11:32.974Z,13
2023-07-24T23:14:03.404Z,12
2023-07-24T23:16:34.669Z,15
2023-07-24T23:19:05.109Z,16
2023-07-24T23:21:36.112Z,16
2023-07-24T23:24:05.676Z,14
2023-07-24T23:26:36.521Z,15
2023-07-24T23:29:07.452Z,12
2023-07-24T23:31:38.239Z,12
2023-07-24T23:34:10.429Z,16
2023-07-24T23:36:41.492Z,12
2023-07-24T23:39:12.352Z,15
2023-07-24T23:41:43.308Z,12
2023-07-24T23:44:14.276Z,16
2023-07-24T23:46:46.447Z,16
2023-07-24T23:49:15.996Z,16
2023-07-24T23:51:46.909Z,12
2023-07-24T23:54:16.216Z,12
2023-07-24T23:56:46.916Z,12
2023-07-24T23:59:18.014Z,12
